createdAt,value
2023-02-05T00:02:16.719Z,-2.16
2023-02-05T00:04:44.163Z,-2.19
2023-02-05T00:07:13.100Z,-2.21
2023-02-05T00:09:40.625Z,-2.24
2023-02-05T00:12:07.940Z,-2.24
2023-02-05T00:14:35.643Z,-2.28
2023-02-05T00:17:03.441Z,-2.29
2023-02-05T00:19:30.855Z,-2.31
2023-02-05T00:21:58.471Z,-2.33
2023-02-05T00:24:26.156Z,-2.37
2023-02-05T00:26:53.659Z,-2.46
2023-02-05T00:29:20.979Z,-2.52
2023-02-05T00:31:49.089Z,-2.60
2023-02-05T00:34:16.757Z,-2.66
2023-02-05T00:36:44.194Z,-2.74
2023-02-05T00:39:14.058Z,-2.80
2023-02-05T00:41:41.942Z,-2.84
2023-02-05T00:44:09.499Z,-2.89
2023-02-05T00:46:37.081Z,-2.98
2023-02-05T00:49:04.566Z,-3.04
2023-02-05T00:51:32.286Z,-3.10
2023-02-05T00:53:59.932Z,-3.15
2023-02-05T00:56:27.446Z,-3.20
2023-02-05T00:58:56.965Z,-3.24
2023-02-05T01:01:24.348Z,-3.24
2023-02-05T01:03:51.980Z,-3.25
2023-02-05T01:06:20.837Z,-3.25
2023-02-05T01:08:48.300Z,-3.23
2023-02-05T01:11:15.831Z,-3.22
2023-02-05T01:13:43.097Z,-3.17
2023-02-05T01:16:10.860Z,-3.14
2023-02-05T01:18:38.805Z,-3.13
2023-02-05T01:21:06.408Z,-3.11
2023-02-05T01:23:33.818Z,-3.11
2023-02-05T01:26:01.387Z,-3.09
2023-02-05T01:28:28.821Z,-3.08
2023-02-05T01:30:56.488Z,-3.08
2023-02-05T01:33:23.998Z,-3.10
2023-02-05T01:35:51.350Z,-3.14
2023-02-05T01:38:18.922Z,-3.17
2023-02-05T01:40:46.336Z,-3.21
2023-02-05T01:43:16.384Z,-3.24
2023-02-05T01:45:59.866Z,-3.28
2023-02-05T01:48:32.291Z,-3.31
2023-02-05T01:51:02.205Z,-3.32
2023-02-05T01:53:32.450Z,-3.34
2023-02-05T01:56:06.247Z,-3.37
2023-02-05T01:58:40.915Z,-3.42
2023-02-05T02:01:08.918Z,-3.45
2023-02-05T02:03:37.311Z,-3.51
2023-02-05T02:06:04.862Z,-3.55
2023-02-05T02:08:33.167Z,-3.61
2023-02-05T02:11:02.603Z,-3.67
2023-02-05T02:13:31.316Z,-3.72
2023-02-05T02:16:00.744Z,-3.77
2023-02-05T02:18:28.983Z,-3.82
2023-02-05T02:21:06.136Z,-3.87
2023-02-05T02:23:54.005Z,-3.93
2023-02-05T02:26:41.796Z,-3.99
2023-02-05T02:29:12.926Z,-4.11
2023-02-05T02:32:01.610Z,-4.19
2023-02-05T02:34:35.301Z,-4.27
2023-02-05T02:37:09.250Z,-4.40
2023-02-05T02:39:46.595Z,-4.43
2023-02-05T02:42:22.055Z,-4.50
2023-02-05T02:45:03.147Z,-4.55
2023-02-05T02:47:44.303Z,-4.61
2023-02-05T02:50:32.419Z,-4.67
2023-02-05T02:53:06.778Z,-4.72
2023-02-05T02:55:37.085Z,-4.82
2023-02-05T02:58:07.018Z,-4.92
2023-02-05T03:00:37.894Z,-5.03
2023-02-05T03:03:07.062Z,-5.08
2023-02-05T03:05:38.437Z,-5.13
2023-02-05T03:08:12.531Z,-5.16
2023-02-05T03:10:49.683Z,-5.21
2023-02-05T03:13:19.143Z,-5.25
2023-02-05T03:15:48.884Z,-5.32
2023-02-05T03:18:18.268Z,-5.39
2023-02-05T03:20:52.473Z,-5.42
2023-02-05T03:23:20.297Z,-5.43
2023-02-05T03:25:47.876Z,-5.46
2023-02-05T03:28:15.818Z,-5.49
2023-02-05T03:30:47.841Z,-5.54
2023-02-05T03:33:43.335Z,-5.59
2023-02-05T03:36:23.833Z,-5.71
2023-02-05T03:39:16.945Z,-5.92
2023-02-05T03:41:57.042Z,-6.09
2023-02-05T03:44:32.753Z,-6.33
2023-02-05T03:47:16.380Z,-6.54
2023-02-05T03:49:52.107Z,-6.73
2023-02-05T03:52:22.424Z,-6.92
2023-02-05T03:54:56.440Z,-7.09
2023-02-05T03:57:28.641Z,-7.21
2023-02-05T03:59:57.568Z,-7.37
2023-02-05T04:02:26.060Z,-7.54
2023-02-05T04:04:54.657Z,-7.61
2023-02-05T04:07:22.100Z,-7.64
2023-02-05T04:09:49.828Z,-7.66
2023-02-05T04:12:17.424Z,-7.69
2023-02-05T04:14:45.491Z,-7.71
2023-02-05T04:17:13.346Z,-7.70
2023-02-05T04:19:41.070Z,-7.71
2023-02-05T04:22:08.720Z,-7.71
2023-02-05T04:24:36.598Z,-7.73
2023-02-05T04:27:07.289Z,-7.71
2023-02-05T04:29:34.994Z,-7.67
2023-02-05T04:32:02.854Z,-7.64
2023-02-05T04:34:30.657Z,-7.66
2023-02-05T04:37:03.912Z,-7.70
2023-02-05T04:39:31.725Z,-7.80
2023-02-05T04:42:00.869Z,-7.91
2023-02-05T04:44:31.858Z,-7.99
2023-02-05T04:46:59.669Z,-8.06
2023-02-05T04:49:27.255Z,-8.11
2023-02-05T04:51:54.595Z,-8.16
2023-02-05T04:54:22.394Z,-8.20
2023-02-05T04:56:51.723Z,-8.25
2023-02-05T04:59:19.165Z,-8.31
2023-02-05T05:01:46.665Z,-8.35
2023-02-05T05:04:13.967Z,-8.36
2023-02-05T05:06:41.529Z,-8.34
2023-02-05T05:09:09.060Z,-8.32
2023-02-05T05:11:36.372Z,-8.28
2023-02-05T05:14:04.254Z,-8.23
2023-02-05T05:16:31.675Z,-8.20
2023-02-05T05:19:01.034Z,-8.16
2023-02-05T05:21:29.238Z,-8.16
2023-02-05T05:23:56.562Z,-8.14
2023-02-05T05:26:23.992Z,-8.11
2023-02-05T05:28:56.917Z,-8.11
2023-02-05T05:31:24.620Z,-8.09
2023-02-05T05:33:52.305Z,-8.07
2023-02-05T05:36:20.009Z,-8.04
2023-02-05T05:38:48.045Z,-8.00
2023-02-05T05:41:36.910Z,-7.99
2023-02-05T05:44:04.734Z,-7.95
2023-02-05T05:46:32.315Z,-7.89
2023-02-05T05:49:01.469Z,-7.86
2023-02-05T05:51:32.281Z,-7.80
2023-02-05T05:53:59.684Z,-7.74
2023-02-05T05:56:27.133Z,-7.59
2023-02-05T05:58:54.591Z,-7.01
2023-02-05T06:01:22.410Z,-6.35
2023-02-05T06:03:50.125Z,-5.78
2023-02-05T06:06:17.821Z,-5.37
2023-02-05T06:08:45.413Z,-5.23
2023-02-05T06:11:12.939Z,-4.71
2023-02-05T06:13:41.258Z,-4.16
2023-02-05T06:16:09.301Z,-3.76
2023-02-05T06:18:37.234Z,-3.24
2023-02-05T06:21:05.372Z,-2.64
2023-02-05T06:23:34.574Z,-2.08
2023-02-05T06:26:01.923Z,-1.51
2023-02-05T06:28:29.600Z,-0.99
2023-02-05T06:30:57.198Z,-0.55
2023-02-05T06:33:25.045Z,-0.30
2023-02-05T06:35:52.661Z,0.10
2023-02-05T06:38:27.174Z,0.52
2023-02-05T06:40:55.288Z,0.83
2023-02-05T06:43:22.820Z,1.11
2023-02-05T06:45:51.488Z,1.33
2023-02-05T06:48:18.794Z,1.03
2023-02-05T06:50:46.263Z,0.74
2023-02-05T06:53:13.614Z,0.63
2023-02-05T06:55:40.908Z,0.63
2023-02-05T06:58:08.271Z,0.65
2023-02-05T07:00:36.058Z,0.67
2023-02-05T07:03:06.018Z,0.64
2023-02-05T07:05:36.321Z,0.65
2023-02-05T07:08:07.007Z,0.61
2023-02-05T07:10:42.121Z,0.48
2023-02-05T07:13:10.464Z,0.40
2023-02-05T07:15:38.547Z,0.36
2023-02-05T07:18:06.521Z,0.22
2023-02-05T07:20:34.122Z,0.10
2023-02-05T07:23:02.764Z,-0.14
2023-02-05T07:25:32.616Z,-0.21
2023-02-05T07:28:00.682Z,-0.35
2023-02-05T07:30:28.227Z,-0.67
2023-02-05T07:32:55.836Z,-1.10
2023-02-05T07:35:23.213Z,-1.43
2023-02-05T07:37:51.591Z,-1.80
2023-02-05T07:40:19.154Z,-1.93
2023-02-05T07:42:47.992Z,-1.75
2023-02-05T07:45:15.296Z,-1.58
2023-02-05T07:47:43.745Z,-1.40
2023-02-05T07:50:14.201Z,-1.21
2023-02-05T07:52:41.956Z,-1.00
2023-02-05T07:55:10.554Z,-0.85
2023-02-05T07:57:38.100Z,-0.69
2023-02-05T08:00:09.284Z,-0.56
2023-02-05T08:02:38.891Z,-0.37
2023-02-05T08:05:07.494Z,-0.19
2023-02-05T08:07:36.718Z,0.00
2023-02-05T08:10:04.940Z,0.19
2023-02-05T08:12:32.769Z,0.34
2023-02-05T08:15:00.338Z,0.47
2023-02-05T08:17:27.881Z,0.55
2023-02-05T08:19:55.671Z,0.34
2023-02-05T08:22:23.160Z,0.21
2023-02-05T08:24:50.614Z,0.24
2023-02-05T08:27:17.954Z,0.36
2023-02-05T08:29:48.656Z,0.23
2023-02-05T08:32:16.063Z,-0.02
2023-02-05T08:34:43.347Z,0.02
2023-02-05T08:37:10.950Z,0.08
2023-02-05T08:39:38.659Z,0.10
2023-02-05T08:42:07.642Z,0.09
2023-02-05T08:44:35.424Z,0.11
2023-02-05T08:47:02.716Z,0.14
2023-02-05T08:49:29.994Z,-0.03
2023-02-05T08:51:57.727Z,-0.09
2023-02-05T08:54:25.578Z,-0.07
2023-02-05T08:56:53.146Z,0.12
2023-02-05T08:59:20.659Z,0.42
2023-02-05T09:01:48.281Z,0.60
2023-02-05T09:04:21.229Z,0.64
2023-02-05T09:06:52.721Z,0.64
2023-02-05T09:09:20.427Z,0.56
2023-02-05T09:11:48.546Z,0.61
2023-02-05T09:14:15.773Z,0.52
2023-02-05T09:16:45.301Z,0.43
2023-02-05T09:19:12.843Z,0.46
2023-02-05T09:21:42.019Z,0.30
2023-02-05T09:24:10.841Z,0.28
2023-02-05T09:26:39.558Z,0.43
2023-02-05T09:29:23.253Z,0.43
2023-02-05T09:32:10.474Z,0.61
2023-02-05T09:34:40.025Z,0.38
2023-02-05T09:37:18.511Z,0.30
2023-02-05T09:40:20.863Z,0.36
2023-02-05T09:43:02.399Z,0.29
2023-02-05T09:45:44.591Z,0.18
2023-02-05T09:48:52.679Z,0.12
2023-02-05T09:51:43.835Z,0.04
2023-02-05T09:54:34.106Z,0.15
2023-02-05T09:57:13.557Z,0.33
2023-02-05T10:00:04.226Z,0.42
2023-02-05T10:02:45.737Z,0.29
2023-02-05T10:05:14.742Z,0.32
2023-02-05T10:07:57.926Z,0.44
2023-02-05T10:10:32.765Z,0.62
2023-02-05T10:13:09.367Z,0.85
2023-02-05T10:16:22.124Z,0.79
2023-02-05T10:19:05.257Z,0.76
2023-02-05T10:21:47.473Z,0.80
2023-02-05T10:24:35.539Z,0.91
2023-02-05T10:27:23.772Z,1.07
2023-02-05T10:30:03.833Z,1.17
2023-02-05T10:32:46.409Z,1.12
2023-02-05T10:35:20.902Z,1.03
2023-02-05T10:37:52.627Z,0.87
2023-02-05T10:40:25.226Z,0.83
2023-02-05T10:43:01.273Z,0.75
2023-02-05T10:45:34.188Z,0.68
2023-02-05T10:48:24.134Z,0.82
2023-02-05T10:51:06.066Z,0.65
2023-02-05T10:53:35.640Z,0.19
2023-02-05T10:56:05.119Z,-0.05
2023-02-05T10:58:52.259Z,-0.14
2023-02-05T11:01:32.744Z,-0.34
2023-02-05T11:04:20.152Z,-0.42
2023-02-05T11:06:56.779Z,-0.28
2023-02-05T11:09:30.126Z,-0.14
2023-02-05T11:12:08.566Z,-0.03
2023-02-05T11:17:38.453Z,-0.03
2023-02-05T11:23:29.623Z,-0.14
2023-02-05T11:26:00.760Z,-0.23
2023-02-05T11:28:30.499Z,-0.26
2023-02-05T11:31:01.615Z,-0.26
2023-02-05T11:33:32.268Z,-0.31
2023-02-05T11:36:06.580Z,-0.34
2023-02-05T11:38:54.591Z,-0.36
2023-02-05T11:41:28.502Z,-0.25
2023-02-05T11:44:00.058Z,-0.17
2023-02-05T11:46:30.105Z,-0.21
2023-02-05T11:49:02.044Z,-0.26
2023-02-05T11:51:38.393Z,-0.38
2023-02-05T11:54:25.938Z,-0.46
2023-02-05T11:57:05.051Z,-0.48
2023-02-05T11:59:35.511Z,-0.55
2023-02-05T12:02:28.976Z,-0.54
2023-02-05T12:05:15.383Z,-0.69
2023-02-05T12:08:04.795Z,-0.72
2023-02-05T12:10:50.730Z,-0.60
2023-02-05T12:14:00.997Z,-0.52
2023-02-05T12:16:59.747Z,-0.39
2023-02-05T12:19:45.390Z,-0.46
2023-02-05T12:22:20.823Z,-0.59
2023-02-05T12:25:17.153Z,-0.76
2023-02-05T12:28:04.249Z,-0.60
2023-02-05T12:30:51.037Z,-0.51
2023-02-05T12:33:44.530Z,-0.41
2023-02-05T12:36:28.483Z,-0.34
2023-02-05T12:39:14.567Z,-0.38
2023-02-05T12:42:01.523Z,-0.29
2023-02-05T12:44:57.471Z,-0.18
2023-02-05T12:47:35.150Z,-0.04
2023-02-05T12:50:32.478Z,-0.09
2023-02-05T12:53:16.899Z,-0.23
2023-02-05T12:56:07.528Z,-0.42
2023-02-05T12:58:41.672Z,-0.57
2023-02-05T13:01:12.542Z,-0.65
2023-02-05T13:03:46.726Z,-0.72
2023-02-05T13:06:20.686Z,-0.68
2023-02-05T13:09:34.051Z,-0.75
2023-02-05T13:15:29.558Z,-0.75
2023-02-05T13:18:04.610Z,-0.82
2023-02-05T13:21:05.184Z,-0.75
2023-02-05T13:23:57.706Z,-0.61
2023-02-05T13:26:50.792Z,-0.53
2023-02-05T13:29:27.406Z,-0.54
2023-02-05T13:32:16.161Z,-0.67
2023-02-05T13:34:44.600Z,-0.75
2023-02-05T13:41:15.820Z,-0.95
2023-02-05T13:43:53.600Z,-1.10
2023-02-05T13:46:46.201Z,-1.18
2023-02-05T13:49:26.158Z,-1.24
2023-02-05T13:52:26.044Z,-1.22
2023-02-05T13:55:03.524Z,-1.30
2023-02-05T13:57:43.370Z,-1.35
2023-02-05T14:00:12.801Z,-1.38
2023-02-05T14:02:44.832Z,-1.44
2023-02-05T14:05:14.823Z,-1.42
2023-02-05T14:07:48.478Z,-1.41
2023-02-05T14:10:31.051Z,-1.42
2023-02-05T14:13:28.349Z,-1.49
2023-02-05T14:15:59.830Z,-1.58
2023-02-05T14:18:48.241Z,-1.70
2023-02-05T14:21:34.525Z,-1.76
2023-02-05T14:24:08.128Z,-1.90
2023-02-05T14:26:55.228Z,-1.97
2023-02-05T14:29:42.174Z,-2.08
2023-02-05T14:32:15.189Z,-2.13
2023-02-05T14:34:47.409Z,-2.19
2023-02-05T14:37:32.973Z,-2.23
2023-02-05T14:40:16.368Z,-2.32
2023-02-05T14:42:44.001Z,-2.40
2023-02-05T14:45:14.990Z,-2.45
2023-02-05T14:47:44.148Z,-2.47
2023-02-05T14:50:29.242Z,-2.54
2023-02-05T14:52:59.474Z,-2.56
2023-02-05T14:55:36.933Z,-2.58
2023-02-05T14:58:24.669Z,-2.60
2023-02-05T15:00:55.641Z,-2.64
2023-02-05T15:03:26.552Z,-2.76
2023-02-05T15:05:58.373Z,-2.82
2023-02-05T15:08:40.073Z,-2.85
2023-02-05T15:11:28.916Z,-2.91
2023-02-05T15:14:19.933Z,-2.95
2023-02-05T15:17:09.429Z,-2.99
2023-02-05T15:19:41.029Z,-2.99
2023-02-05T15:22:21.400Z,-3.03
2023-02-05T15:24:50.804Z,-3.04
2023-02-05T15:27:24.655Z,-3.07
2023-02-05T15:29:57.178Z,-3.14
2023-02-05T15:32:37.263Z,-3.17
2023-02-05T15:35:08.150Z,-3.21
2023-02-05T15:37:41.851Z,-3.23
2023-02-05T15:40:29.768Z,-3.23
2023-02-05T15:43:26.597Z,-3.22
2023-02-05T15:46:07.620Z,-3.20
2023-02-05T15:48:36.354Z,-3.17
2023-02-05T15:51:30.235Z,-3.17
2023-02-05T15:54:00.295Z,-3.26
2023-02-05T15:56:35.916Z,-3.15
2023-02-05T15:59:07.152Z,-3.21
2023-02-05T16:01:41.504Z,-3.19
2023-02-05T16:04:24.222Z,-3.22
2023-02-05T16:06:51.562Z,-3.22
2023-02-05T16:09:23.846Z,-3.23
2023-02-05T16:11:51.588Z,-3.26
2023-02-05T16:14:24.879Z,-3.27
2023-02-05T16:17:04.665Z,-3.34
2023-02-05T16:19:52.226Z,-3.42
2023-02-05T16:22:38.218Z,-3.47
2023-02-05T16:25:09.571Z,-3.51
2023-02-05T16:27:45.991Z,-3.56
2023-02-05T16:30:31.658Z,-3.62
2023-02-05T16:33:03.761Z,-3.69
2023-02-05T16:35:36.522Z,-3.75
2023-02-05T16:38:13.723Z,-3.79
2023-02-05T16:40:45.554Z,-3.82
2023-02-05T16:43:29.102Z,-3.86
2023-02-05T16:46:00.369Z,-3.89
2023-02-05T16:48:29.247Z,-3.91
2023-02-05T16:50:57.345Z,-3.92
2023-02-05T16:53:27.822Z,-3.92
2023-02-05T16:56:02.232Z,-3.95
2023-02-05T16:58:35.964Z,-3.98
2023-02-05T17:01:09.883Z,-4.01
2023-02-05T17:03:40.811Z,-4.03
2023-02-05T17:06:13.961Z,-4.08
2023-02-05T17:08:44.399Z,-4.25
2023-02-05T17:11:37.290Z,-4.22
2023-02-05T17:14:13.948Z,-4.28
2023-02-05T17:16:42.470Z,-4.35
2023-02-05T17:19:30.470Z,-4.44
2023-02-05T17:22:17.086Z,-4.50
2023-02-05T17:24:46.865Z,-4.52
2023-02-05T17:27:19.740Z,-4.53
2023-02-05T17:29:49.324Z,-4.55
2023-02-05T17:32:19.165Z,-4.55
2023-02-05T17:34:47.485Z,-4.58
2023-02-05T17:37:15.592Z,-4.58
2023-02-05T17:39:47.385Z,-4.71
2023-02-05T17:42:21.388Z,-4.56
2023-02-05T17:44:48.632Z,-4.54
2023-02-05T17:47:16.187Z,-4.52
2023-02-05T17:49:43.665Z,-4.52
2023-02-05T17:52:11.510Z,-4.56
2023-02-05T17:54:47.152Z,-4.57
2023-02-05T17:57:17.269Z,-4.60
2023-02-05T17:59:45.246Z,-4.62
2023-02-05T18:02:13.865Z,-4.62
2023-02-05T18:04:43.067Z,-4.63
2023-02-05T18:07:19.899Z,-4.63
2023-02-05T18:09:48.720Z,-4.63
2023-02-05T18:12:20.953Z,-4.66
2023-02-05T18:14:48.377Z,-4.68
2023-02-05T18:17:16.639Z,-4.73
2023-02-05T18:19:44.464Z,-4.74
2023-02-05T18:22:13.828Z,-4.77
2023-02-05T18:24:41.664Z,-4.79
2023-02-05T18:27:12.727Z,-4.81
2023-02-05T18:29:46.858Z,-4.82
2023-02-05T18:32:20.246Z,-4.85
2023-02-05T18:34:53.489Z,-4.90
2023-02-05T18:37:21.384Z,-4.94
2023-02-05T18:39:50.227Z,-5.00
2023-02-05T18:42:18.534Z,-5.03
2023-02-05T18:44:46.170Z,-5.05
2023-02-05T18:47:16.782Z,-5.12
2023-02-05T18:49:46.972Z,-5.16
2023-02-05T18:52:14.426Z,-5.20
2023-02-05T18:54:46.385Z,-5.25
2023-02-05T18:57:17.430Z,-5.32
2023-02-05T18:59:45.608Z,-5.40
2023-02-05T19:02:15.452Z,-5.46
2023-02-05T19:10:49.908Z,-5.62
2023-02-05T19:13:18.267Z,-5.66
2023-02-05T19:15:46.375Z,-5.71
2023-02-05T19:18:16.646Z,-5.74
2023-02-05T19:20:46.149Z,-5.77
2023-02-05T19:23:22.181Z,-5.80
2023-02-05T19:25:54.516Z,-5.82
2023-02-05T19:28:28.677Z,-5.82
2023-02-05T19:31:04.805Z,-5.85
2023-02-05T19:33:33.289Z,-5.87
2023-02-05T19:36:01.726Z,-5.90
2023-02-05T19:38:29.430Z,-5.93
2023-02-05T19:41:00.320Z,-5.94
2023-02-05T19:43:28.605Z,-5.95
2023-02-05T19:45:58.706Z,-5.99
2023-02-05T19:48:29.280Z,-6.01
2023-02-05T19:50:57.130Z,-6.02
2023-02-05T19:53:25.378Z,-6.04
2023-02-05T19:55:59.047Z,-6.04
2023-02-05T19:58:30.472Z,-6.03
2023-02-05T20:00:58.364Z,-6.06
2023-02-05T20:03:29.214Z,-6.06
2023-02-05T20:06:03.732Z,-6.04
2023-02-05T20:08:33.529Z,-6.04
2023-02-05T20:11:01.818Z,-6.02
2023-02-05T20:13:30.910Z,-6.00
2023-02-05T20:16:04.098Z,-6.01
2023-02-05T20:18:31.624Z,-6.11
2023-02-05T20:20:59.485Z,-6.01
2023-02-05T20:23:27.265Z,-6.05
2023-02-05T20:26:00.167Z,-6.23
2023-02-05T20:28:28.078Z,-6.15
2023-02-05T20:31:14.621Z,-6.20
2023-02-05T20:33:44.259Z,-6.22
2023-02-05T20:36:12.752Z,-6.27
2023-02-05T20:38:40.493Z,-6.31
2023-02-05T20:41:14.412Z,-6.34
2023-02-05T20:43:42.399Z,-6.35
2023-02-05T20:46:14.065Z,-6.38
2023-02-05T20:48:45.632Z,-6.38
2023-02-05T20:51:20.684Z,-6.41
2023-02-05T20:53:49.530Z,-6.43
2023-02-05T20:56:20.631Z,-6.42
2023-02-05T20:58:52.446Z,-6.42
2023-02-05T21:01:28.638Z,-6.42
2023-02-05T21:04:07.680Z,-6.44
2023-02-05T21:06:38.066Z,-6.45
2023-02-05T21:09:11.209Z,-6.46
2023-02-05T21:11:42.723Z,-6.49
2023-02-05T21:14:10.572Z,-6.53
2023-02-05T21:16:38.934Z,-6.60
2023-02-05T21:19:07.646Z,-6.67
2023-02-05T21:21:37.662Z,-6.73
2023-02-05T21:24:08.179Z,-6.82
2023-02-05T21:26:38.360Z,-6.87
2023-02-05T21:29:14.363Z,-6.90
2023-02-05T21:31:45.900Z,-6.97
2023-02-05T21:34:17.214Z,-7.02
2023-02-05T21:36:46.939Z,-7.06
2023-02-05T21:39:15.569Z,-7.10
2023-02-05T21:41:47.342Z,-7.13
2023-02-05T21:44:14.946Z,-7.16
2023-02-05T21:46:42.979Z,-7.23
2023-02-05T21:49:11.100Z,-7.29
2023-02-05T21:51:39.424Z,-7.33
2023-02-05T21:54:07.048Z,-7.36
2023-02-05T21:56:40.351Z,-7.41
2023-02-05T21:59:09.189Z,-7.47
2023-02-05T22:01:37.202Z,-7.52
2023-02-05T22:04:13.907Z,-7.55
2023-02-05T22:06:41.761Z,-7.55
2023-02-05T22:09:11.682Z,-7.58
2023-02-05T22:11:40.097Z,-7.62
2023-02-05T22:14:08.853Z,-7.60
2023-02-05T22:16:37.663Z,-7.59
2023-02-05T22:19:05.515Z,-7.70
2023-02-05T22:21:35.898Z,-7.61
2023-02-05T22:24:05.046Z,-7.63
2023-02-05T22:26:35.363Z,-7.66
2023-02-05T22:29:05.803Z,-7.78
2023-02-05T22:31:34.207Z,-7.91
2023-02-05T22:34:02.260Z,-8.03
2023-02-05T22:36:30.808Z,-8.14
2023-02-05T22:38:58.384Z,-8.18
2023-02-05T22:41:28.017Z,-8.20
2023-02-05T22:44:00.343Z,-8.25
2023-02-05T22:46:30.149Z,-8.31
2023-02-05T22:48:59.473Z,-8.37
2023-02-05T22:51:31.046Z,-8.48
2023-02-05T22:53:59.120Z,-8.58
2023-02-05T22:56:27.329Z,-8.70
2023-02-05T22:58:55.572Z,-8.84
2023-02-05T23:01:26.580Z,-8.96
2023-02-05T23:03:55.745Z,-9.06
2023-02-05T23:06:28.852Z,-9.16
2023-02-05T23:09:01.366Z,-9.24
2023-02-05T23:11:30.347Z,-9.32
2023-02-05T23:13:58.590Z,-9.41
2023-02-05T23:16:29.132Z,-9.47
2023-02-05T23:18:59.924Z,-9.51
2023-02-05T23:21:30.019Z,-9.57
2023-02-05T23:23:58.037Z,-9.60
2023-02-05T23:26:41.709Z,-9.62
2023-02-05T23:29:11.336Z,-9.66
2023-02-05T23:31:39.271Z,-9.67
2023-02-05T23:34:07.155Z,-9.68
2023-02-05T23:36:35.185Z,-9.70
2023-02-05T23:39:04.223Z,-9.82
2023-02-05T23:41:37.173Z,-9.78
2023-02-05T23:44:18.829Z,-9.80
2023-02-05T23:46:49.136Z,-9.82
2023-02-05T23:49:20.984Z,-9.83
2023-02-05T23:51:51.062Z,-9.86
2023-02-05T23:54:19.172Z,-9.83
2023-02-05T23:56:47.059Z,-9.81
2023-02-05T23:59:15.518Z,-9.82
